HISTORICAL SENSOR DATA

Sensor Data Report

DB LIVE
CURRENT TIME--:--:--
DEVICE NETWORK Gateway Status
13 ESP · realtime ~1s · history 60s
Weather WS-MOD-01
ONLINE
Actuator ACT-MOD-01
OFFLINE
Mainboard L3 MB-L3-01
ONLINE
Mainboard L5 MB-L5-01
ONLINE
Remote AC AC-REMOTE-01
ONLINE
PZEM L3-01 PWR-L3-01
OFFLINE
PZEM L3-02 PWR-L3-02
OFFLINE
PZEM L3-03 PWR-L3-03
OFFLINE
PZEM L3-04 PWR-L3-04
OFFLINE
PZEM L5-01 PWR-L5-01
ONLINE
PZEM L5-02 PWR-L5-02
ONLINE
PZEM L5-03 PWR-L5-03
OFFLINE
PZEM L5-04 PWR-L5-04
OFFLINE
REPORT FILTER

Periode & Sensor

DATABASE HISTORY
RESET
QUICK RANGE Hari ini 7 hari 30 hari
PERIODE02 Sep 2026sampai 02 Sep 2026
TOTAL DATA40,278sensor readings
MINIMUM-0.50sesuai filter
AVERAGE56.78sesuai filter
MAXIMUM998.00sesuai filter
REPORT RESULT

Data Sensor

02/09/2026 — 02/09/2026 EXPORT CSV
NOTANGGALWAKTUDEVICECHANNELSENSORVALUEUNIT
12601 02/09/2026 14:54:17 MB-L5-01Mainboard Lantai 5 L5-AI-02 Analog Input 2 3.05 V
12602 02/09/2026 14:54:17 MB-L3-01Mainboard Lantai 3 L3-BGT-03 Black Globe Temperature 3 29.40 °C
12603 02/09/2026 14:54:17 MB-L5-01Mainboard Lantai 5 L5-AI-01 Analog Input 1 3.05 V
12604 02/09/2026 14:54:17 MB-L3-01Mainboard Lantai 3 L3-ST-02 Surface Temperature 2 30.20 °C
12605 02/09/2026 14:54:17 MB-L3-01Mainboard Lantai 3 L3-AI-06 Analog Input 6 3.12 V
12606 02/09/2026 14:54:17 MB-L3-01Mainboard Lantai 3 L3-LUX-05 Illuminance / LUX 5 69.00 lux
12607 02/09/2026 14:54:17 MB-L3-01Mainboard Lantai 3 L3-LUX-06 Illuminance / LUX 6 36.90 lux
12608 02/09/2026 14:54:17 MB-L3-01Mainboard Lantai 3 L3-AI-01 Analog Input 1 3.12 V
12609 02/09/2026 14:54:17 MB-L5-01Mainboard Lantai 5 L5-BGT-03 Black Globe Temperature 3 30.00 °C
12610 02/09/2026 14:54:17 MB-L3-01Mainboard Lantai 3 L3-HFT-01 Heat Flow Temperature 1 29.70 °C
12611 02/09/2026 14:54:17 MB-L5-01Mainboard Lantai 5 L5-LUX-03 Illuminance / LUX 3 214.20 lux
12612 02/09/2026 14:54:17 MB-L5-01Mainboard Lantai 5 L5-BGT-02 Black Globe Temperature 2 29.90 °C
12613 02/09/2026 14:54:15 MB-L5-01Mainboard Lantai 5 L5-ST-02 Surface Temperature 2 30.60 °C
12614 02/09/2026 14:54:15 MB-L3-01Mainboard Lantai 3 L3-LUX-02 Illuminance / LUX 2 81.60 lux
12615 02/09/2026 14:54:15 MB-L5-01Mainboard Lantai 5 L5-LUX-05 Illuminance / LUX 5 563.40 lux
12616 02/09/2026 14:54:15 MB-L3-01Mainboard Lantai 3 L3-SHT-01-RH SHT20 1 Humidity 48.40 %RH
12617 02/09/2026 14:54:15 MB-L3-01Mainboard Lantai 3 L3-AI-03 Analog Input 3 3.12 V
12618 02/09/2026 14:54:15 MB-L5-01Mainboard Lantai 5 L5-LUX-02 Illuminance / LUX 2 181.70 lux
12619 02/09/2026 14:54:15 MB-L5-01Mainboard Lantai 5 L5-ST-01 Surface Temperature 1 30.40 °C
12620 02/09/2026 14:54:15 MB-L3-01Mainboard Lantai 3 L3-SHT-02-RH SHT20 2 Humidity 48.40 %RH
12621 02/09/2026 14:54:15 MB-L3-01Mainboard Lantai 3 L3-BGT-01 Black Globe Temperature 1 29.90 °C
12622 02/09/2026 14:54:15 MB-L5-01Mainboard Lantai 5 L5-RAD-02 Radiation 2 2.00 W/m²
12623 02/09/2026 14:54:15 MB-L3-01Mainboard Lantai 3 L3-LUX-01 Illuminance / LUX 1 44.20 lux
12624 02/09/2026 14:54:15 MB-L3-01Mainboard Lantai 3 L3-RAD-02 Radiation 2 2.00 W/m²
12625 02/09/2026 14:54:15 MB-L5-01Mainboard Lantai 5 L5-AI-06 Analog Input 6 3.05 V
12626 02/09/2026 14:54:15 MB-L3-01Mainboard Lantai 3 L3-LUX-03 Illuminance / LUX 3 168.00 lux
12627 02/09/2026 14:54:15 MB-L5-01Mainboard Lantai 5 L5-SHT-02-RH SHT20 2 Humidity 48.20 %RH
12628 02/09/2026 14:54:15 MB-L3-01Mainboard Lantai 3 L3-AI-04 Analog Input 4 3.12 V
12629 02/09/2026 14:54:15 MB-L5-01Mainboard Lantai 5 L5-LUX-04 Illuminance / LUX 4 291.90 lux
12630 02/09/2026 14:54:15 MB-L3-01Mainboard Lantai 3 L3-BGT-02 Black Globe Temperature 2 29.90 °C
12631 02/09/2026 14:54:15 MB-L3-01Mainboard Lantai 3 L3-RAD-01 Radiation 1 2.00 W/m²
12632 02/09/2026 14:54:15 MB-L5-01Mainboard Lantai 5 L5-AI-05 Analog Input 5 3.05 V
12633 02/09/2026 14:54:15 MB-L5-01Mainboard Lantai 5 L5-SHT-03-T SHT20 3 Temperature 32.20 °C
12634 02/09/2026 14:54:15 MB-L5-01Mainboard Lantai 5 L5-SHT-01-T SHT20 1 Temperature 32.40 °C
12635 02/09/2026 14:54:15 MB-L3-01Mainboard Lantai 3 L3-SHT-03-RH SHT20 3 Humidity 49.20 %RH
12636 02/09/2026 14:54:15 MB-L5-01Mainboard Lantai 5 L5-SHT-02-T SHT20 2 Temperature 32.20 °C
12637 02/09/2026 14:54:15 MB-L5-01Mainboard Lantai 5 L5-SHT-03-RH SHT20 3 Humidity 48.60 %RH
12638 02/09/2026 14:54:15 MB-L5-01Mainboard Lantai 5 L5-AI-04 Analog Input 4 3.05 V
12639 02/09/2026 14:54:15 MB-L3-01Mainboard Lantai 3 L3-ST-01 Surface Temperature 1 30.00 °C
12640 02/09/2026 14:54:15 MB-L3-01Mainboard Lantai 3 L3-AI-05 Analog Input 5 3.12 V
12641 02/09/2026 14:54:15 MB-L3-01Mainboard Lantai 3 L3-SHT-03-T SHT20 3 Temperature 31.80 °C
12642 02/09/2026 14:54:15 MB-L5-01Mainboard Lantai 5 L5-RAD-01 Radiation 1 2.00 W/m²
12643 02/09/2026 14:54:15 MB-L5-01Mainboard Lantai 5 L5-AI-03 Analog Input 3 3.05 V
12644 02/09/2026 14:54:15 MB-L3-01Mainboard Lantai 3 L3-SHT-02-T SHT20 2 Temperature 32.10 °C
12645 02/09/2026 14:54:15 MB-L5-01Mainboard Lantai 5 L5-AI-02 Analog Input 2 3.05 V
12646 02/09/2026 14:54:15 MB-L3-01Mainboard Lantai 3 L3-BGT-03 Black Globe Temperature 3 29.40 °C
12647 02/09/2026 14:54:15 MB-L5-01Mainboard Lantai 5 L5-AI-01 Analog Input 1 3.05 V
12648 02/09/2026 14:54:15 MB-L3-01Mainboard Lantai 3 L3-ST-02 Surface Temperature 2 30.20 °C
12649 02/09/2026 14:54:15 MB-L3-01Mainboard Lantai 3 L3-AI-06 Analog Input 6 3.12 V
12650 02/09/2026 14:54:15 MB-L3-01Mainboard Lantai 3 L3-LUX-06 Illuminance / LUX 6 41.80 lux
12651 02/09/2026 14:54:15 MB-L3-01Mainboard Lantai 3 L3-AI-01 Analog Input 1 3.12 V
12652 02/09/2026 14:54:15 MB-L5-01Mainboard Lantai 5 L5-BGT-03 Black Globe Temperature 3 30.00 °C
12653 02/09/2026 14:54:15 MB-L3-01Mainboard Lantai 3 L3-HFT-01 Heat Flow Temperature 1 29.70 °C
12654 02/09/2026 14:54:15 MB-L5-01Mainboard Lantai 5 L5-LUX-03 Illuminance / LUX 3 209.70 lux
12655 02/09/2026 14:54:15 MB-L5-01Mainboard Lantai 5 L5-BGT-02 Black Globe Temperature 2 30.00 °C
12656 02/09/2026 14:54:15 MB-L5-01Mainboard Lantai 5 L5-BGT-01 Black Globe Temperature 1 29.90 °C
12657 02/09/2026 14:54:15 MB-L3-01Mainboard Lantai 3 L3-AI-02 Analog Input 2 3.12 V
12658 02/09/2026 14:54:15 MB-L3-01Mainboard Lantai 3 L3-LUX-04 Illuminance / LUX 4 107.20 lux
12659 02/09/2026 14:54:15 MB-L5-01Mainboard Lantai 5 L5-HFT-02 Heat Flow Temperature 2 30.40 °C
12660 02/09/2026 14:54:15 MB-L5-01Mainboard Lantai 5 L5-SHT-01-RH SHT20 1 Humidity 48.40 %RH
12661 02/09/2026 14:54:15 MB-L3-01Mainboard Lantai 3 L3-HFT-02 Heat Flow Temperature 2 29.20 °C
12662 02/09/2026 14:54:15 MB-L3-01Mainboard Lantai 3 L3-SHT-01-T SHT20 1 Temperature 32.00 °C
12663 02/09/2026 14:54:15 MB-L5-01Mainboard Lantai 5 L5-HFT-01 Heat Flow Temperature 1 30.50 °C
12664 02/09/2026 14:54:15 MB-L5-01Mainboard Lantai 5 L5-LUX-01 Illuminance / LUX 1 268.00 lux
12665 02/09/2026 14:54:15 MB-L5-01Mainboard Lantai 5 L5-LUX-06 Illuminance / LUX 6 300.50 lux
12666 02/09/2026 14:54:13 MB-L5-01Mainboard Lantai 5 L5-AI-06 Analog Input 6 3.05 V
12667 02/09/2026 14:54:13 MB-L3-01Mainboard Lantai 3 L3-LUX-03 Illuminance / LUX 3 208.40 lux
12668 02/09/2026 14:54:13 MB-L5-01Mainboard Lantai 5 L5-SHT-02-RH SHT20 2 Humidity 48.30 %RH
12669 02/09/2026 14:54:13 MB-L3-01Mainboard Lantai 3 L3-AI-04 Analog Input 4 3.12 V
12670 02/09/2026 14:54:13 MB-L5-01Mainboard Lantai 5 L5-LUX-04 Illuminance / LUX 4 295.40 lux
12671 02/09/2026 14:54:13 MB-L3-01Mainboard Lantai 3 L3-BGT-02 Black Globe Temperature 2 29.90 °C
12672 02/09/2026 14:54:13 MB-L3-01Mainboard Lantai 3 L3-RAD-01 Radiation 1 2.00 W/m²
12673 02/09/2026 14:54:13 MB-L5-01Mainboard Lantai 5 L5-AI-05 Analog Input 5 3.05 V
12674 02/09/2026 14:54:13 MB-L5-01Mainboard Lantai 5 L5-SHT-03-T SHT20 3 Temperature 32.20 °C
12675 02/09/2026 14:54:13 MB-L5-01Mainboard Lantai 5 L5-SHT-01-T SHT20 1 Temperature 32.30 °C
12676 02/09/2026 14:54:13 MB-L3-01Mainboard Lantai 3 L3-SHT-03-RH SHT20 3 Humidity 49.10 %RH
12677 02/09/2026 14:54:13 MB-L5-01Mainboard Lantai 5 L5-SHT-02-T SHT20 2 Temperature 32.40 °C
12678 02/09/2026 14:54:13 MB-L5-01Mainboard Lantai 5 L5-SHT-03-RH SHT20 3 Humidity 48.70 %RH
12679 02/09/2026 14:54:13 MB-L5-01Mainboard Lantai 5 L5-AI-04 Analog Input 4 3.05 V
12680 02/09/2026 14:54:13 MB-L3-01Mainboard Lantai 3 L3-ST-01 Surface Temperature 1 29.90 °C
12681 02/09/2026 14:54:13 MB-L3-01Mainboard Lantai 3 L3-AI-05 Analog Input 5 3.12 V
12682 02/09/2026 14:54:13 MB-L3-01Mainboard Lantai 3 L3-SHT-03-T SHT20 3 Temperature 31.90 °C
12683 02/09/2026 14:54:13 MB-L5-01Mainboard Lantai 5 L5-RAD-01 Radiation 1 2.00 W/m²
12684 02/09/2026 14:54:13 MB-L5-01Mainboard Lantai 5 L5-AI-03 Analog Input 3 3.05 V
12685 02/09/2026 14:54:13 MB-L3-01Mainboard Lantai 3 L3-SHT-02-T SHT20 2 Temperature 32.10 °C
12686 02/09/2026 14:54:13 MB-L5-01Mainboard Lantai 5 L5-AI-02 Analog Input 2 3.05 V
12687 02/09/2026 14:54:13 MB-L3-01Mainboard Lantai 3 L3-BGT-03 Black Globe Temperature 3 29.40 °C
12688 02/09/2026 14:54:13 MB-L5-01Mainboard Lantai 5 L5-AI-01 Analog Input 1 3.05 V
12689 02/09/2026 14:54:13 MB-L3-01Mainboard Lantai 3 L3-ST-02 Surface Temperature 2 30.20 °C
12690 02/09/2026 14:54:13 MB-L3-01Mainboard Lantai 3 L3-AI-06 Analog Input 6 3.12 V
12691 02/09/2026 14:54:13 MB-L3-01Mainboard Lantai 3 L3-LUX-06 Illuminance / LUX 6 50.70 lux
12692 02/09/2026 14:54:13 MB-L3-01Mainboard Lantai 3 L3-AI-01 Analog Input 1 3.12 V
12693 02/09/2026 14:54:13 MB-L5-01Mainboard Lantai 5 L5-BGT-03 Black Globe Temperature 3 30.10 °C
12694 02/09/2026 14:54:13 MB-L3-01Mainboard Lantai 3 L3-HFT-01 Heat Flow Temperature 1 29.80 °C
12695 02/09/2026 14:54:13 MB-L5-01Mainboard Lantai 5 L5-LUX-03 Illuminance / LUX 3 226.60 lux
12696 02/09/2026 14:54:13 MB-L5-01Mainboard Lantai 5 L5-BGT-02 Black Globe Temperature 2 30.00 °C
12697 02/09/2026 14:54:13 MB-L5-01Mainboard Lantai 5 L5-BGT-01 Black Globe Temperature 1 29.90 °C
12698 02/09/2026 14:54:13 MB-L3-01Mainboard Lantai 3 L3-LUX-05 Illuminance / LUX 5 83.70 lux
12699 02/09/2026 14:54:13 MB-L3-01Mainboard Lantai 3 L3-AI-02 Analog Input 2 3.12 V
12700 02/09/2026 14:54:13 MB-L3-01Mainboard Lantai 3 L3-LUX-04 Illuminance / LUX 4 126.50 lux
Menampilkan maksimal 100 data per halaman